Time;durP1;ratioP1;P1;durP2;ratioP2;P2;SDS_P1;SDS_P2;PMS_P1;PMS_P2;Temp;Humidity;BMP_temperature;BMP_pressure;BME280_temperature;BME280_humidity;BME280_pressure;Samples;Min_cycle;Max_cycle;Signal;HPM_P1;HPM_P2
2022/07/05 00:02:07;;;;;;;10.20;3.25;;;12.40;92.10;;;;;;5038731;28;20037;-68
2022/07/05 00:04:33;;;;;;;5.72;3.05;;;12.40;92.10;;;;;;5044208;28;20335;-68
2022/07/05 00:09:43;;;;;;;8.00;2.90;;;12.20;92.10;;;;;;5045290;28;20098;-68
2022/07/05 00:12:09;;;;;;;6.20;2.40;;;12.10;92.10;;;;;;5042880;28;20054;-68
2022/07/05 00:14:35;;;;;;;6.90;2.60;;;12.10;92.00;;;;;;5044833;28;20044;-68
2022/07/05 00:17:03;;;;;;;5.18;2.78;;;12.10;91.70;;;;;;5037603;28;20153;-68
2022/07/05 00:19:28;;;;;;;7.20;2.75;;;12.10;91.70;;;;;;5045799;28;20159;-68
2022/07/05 00:21:54;;;;;;;9.57;3.38;;;12.00;92.00;;;;;;5045962;28;20182;-68
2022/07/05 00:24:19;;;;;;;7.05;3.75;;;12.00;92.50;;;;;;5042329;28;20443;-68
2022/07/05 00:26:45;;;;;;;9.00;3.78;;;12.00;92.80;;;;;;5046063;28;20422;-68
2022/07/05 00:29:10;;;;;;;6.82;3.85;;;12.00;93.00;;;;;;5038882;28;20037;-68
2022/07/05 00:31:36;;;;;;;9.88;3.83;;;12.00;92.90;;;;;;5044645;28;20028;-68
2022/07/05 00:34:01;;;;;;;9.65;3.72;;;11.90;93.10;;;;;;5041835;28;20075;-68
2022/07/05 00:36:27;;;;;;;12.18;4.70;;;12.00;93.20;;;;;;5047321;28;20040;-68
2022/07/05 00:38:52;;;;;;;9.70;4.20;;;12.00;93.50;;;;;;5041847;28;20036;-68
2022/07/05 00:41:18;;;;;;;8.52;4.45;;;12.00;93.50;;;;;;5044237;28;20108;-68
2022/07/05 00:44:05;;;;;;;9.48;4.40;;;12.00;93.60;;;;;;5044708;28;20043;-68
2022/07/05 00:46:31;;;;;;;8.80;4.65;;;11.90;93.50;;;;;;5041558;28;20092;-68
2022/07/05 00:48:57;;;;;;;7.05;4.47;;;11.90;93.70;;;;;;5039573;28;20029;-68
2022/07/05 00:51:24;;;;;;;10.50;4.43;;;11.90;93.80;;;;;;5043540;28;20033;-68
2022/07/05 00:53:50;;;;;;;6.88;4.65;;;11.90;93.90;;;;;;5041019;28;20044;-68
2022/07/05 00:56:18;;;;;;;7.63;4.70;;;12.00;94.00;;;;;;5034457;28;20052;-68
2022/07/05 00:58:43;;;;;;;6.78;4.53;;;12.00;94.00;;;;;;5038165;28;20533;-68
2022/07/05 01:01:10;;;;;;;11.35;4.90;;;12.00;94.00;;;;;;5043407;28;20037;-68
2022/07/05 01:03:36;;;;;;;7.38;4.78;;;11.90;94.00;;;;;;5038826;28;20036;-68
2022/07/05 01:06:05;;;;;;;11.70;4.60;;;11.80;93.90;;;;;;5043070;28;20495;-68
2022/07/05 01:08:33;;;;;;;8.63;4.40;;;11.80;93.90;;;;;;5042496;28;20064;-68
2022/07/05 01:10:58;;;;;;;10.68;4.60;;;11.70;93.80;;;;;;5042703;28;20468;-68
2022/07/05 01:13:25;;;;;;;8.98;4.82;;;11.80;94.00;;;;;;5039491;28;20052;-68
2022/07/05 01:15:51;;;;;;;9.75;4.97;;;11.70;93.90;;;;;;5041420;28;20502;-68
2022/07/05 01:18:20;;;;;;;9.35;4.63;;;11.60;93.90;;;;;;5049533;28;20025;-68
2022/07/05 01:20:48;;;;;;;8.68;4.47;;;11.70;94.10;;;;;;5048899;28;20041;-68
2022/07/05 01:23:14;;;;;;;7.13;4.32;;;11.60;93.90;;;;;;5049779;28;20120;-68
2022/07/05 01:25:40;;;;;;;7.22;4.47;;;11.60;94.20;;;;;;5047890;28;20049;-68
2022/07/05 01:28:05;;;;;;;10.55;5.03;;;11.60;94.10;;;;;;5048610;28;20344;-68
2022/07/05 01:30:34;;;;;;;6.57;4.47;;;11.60;94.30;;;;;;5048564;28;20079;-68
2022/07/05 01:33:00;;;;;;;9.75;4.68;;;11.60;94.20;;;;;;5050130;28;20037;-68
2022/07/05 01:35:25;;;;;;;10.52;4.88;;;11.60;94.30;;;;;;5048552;28;20032;-68
2022/07/05 01:37:51;;;;;;;9.75;5.60;;;11.60;94.60;;;;;;5049311;28;20496;-68
2022/07/05 01:40:18;;;;;;;10.60;5.60;;;11.60;94.70;;;;;;5048215;28;20035;-68
2022/07/05 01:42:44;;;;;;;10.15;5.70;;;11.60;94.70;;;;;;5048504;28;20047;-68
2022/07/05 01:45:10;;;;;;;9.77;5.25;;;11.50;94.70;;;;;;5046289;28;20085;-68
2022/07/05 01:47:39;;;;;;;9.65;5.57;;;11.60;94.80;;;;;;5046646;28;20041;-68
2022/07/05 01:50:07;;;;;;;10.02;5.60;;;11.50;94.80;;;;;;5048948;28;20056;-68
2022/07/05 01:52:36;;;;;;;10.52;6.05;;;11.50;94.80;;;;;;5047076;28;20040;-68
2022/07/05 01:55:03;;;;;;;9.80;5.57;;;11.50;94.80;;;;;;5048286;28;20459;-68
2022/07/05 01:57:29;;;;;;;8.80;6.03;;;11.50;94.80;;;;;;5048580;28;20377;-68
2022/07/05 01:59:54;;;;;;;11.57;6.05;;;11.50;94.90;;;;;;5044787;28;20025;-68
2022/07/05 02:02:20;;;;;;;12.57;5.95;;;11.50;94.90;;;;;;5049806;28;20098;-68
2022/07/05 02:04:45;;;;;;;13.88;5.72;;;11.50;94.90;;;;;;5046545;28;20037;-68
2022/07/05 02:07:11;;;;;;;7.70;5.57;;;11.50;95.00;;;;;;5052269;28;20040;-68
2022/07/05 02:09:37;;;;;;;10.93;5.57;;;11.40;94.90;;;;;;5048484;28;20383;-68
2022/07/05 02:12:04;;;;;;;8.48;5.80;;;11.40;95.00;;;;;;5049783;28;20028;-68
2022/07/05 02:14:29;;;;;;;8.73;5.20;;;11.40;94.90;;;;;;5043756;28;20154;-68
2022/07/05 02:16:55;;;;;;;9.88;5.90;;;11.40;94.90;;;;;;5048905;28;20273;-68
2022/07/05 02:19:20;;;;;;;9.48;5.85;;;11.40;95.00;;;;;;5045390;28;20139;-68
2022/07/05 02:21:46;;;;;;;11.73;5.32;;;11.40;95.10;;;;;;5047196;28;20072;-68
2022/07/05 02:24:11;;;;;;;9.77;5.40;;;11.30;94.80;;;;;;5044828;28;20445;-68
2022/07/05 02:26:37;;;;;;;10.93;6.10;;;11.30;95.10;;;;;;5041508;28;20051;-68
2022/07/05 02:29:03;;;;;;;10.88;6.05;;;11.30;95.00;;;;;;5045410;28;20049;-68
2022/07/05 02:31:29;;;;;;;7.85;5.43;;;11.20;94.90;;;;;;5049850;28;20353;-68
2022/07/05 02:33:55;;;;;;;8.70;5.75;;;11.10;94.70;;;;;;5050078;28;20033;-68
2022/07/05 02:36:21;;;;;;;11.30;5.70;;;11.10;94.70;;;;;;5046029;28;20425;-68
2022/07/05 02:38:47;;;;;;;8.05;5.05;;;11.20;94.90;;;;;;5046791;28;20075;-68
2022/07/05 02:41:13;;;;;;;8.25;5.45;;;11.20;95.00;;;;;;5047630;28;20116;-68
2022/07/05 02:43:39;;;;;;;11.07;6.00;;;11.10;94.90;;;;;;5044885;28;20509;-68
2022/07/05 02:46:06;;;;;;;12.40;6.40;;;11.20;95.10;;;;;;5047077;28;20029;-68
2022/07/05 02:48:34;;;;;;;9.70;5.97;;;11.10;95.00;;;;;;5050694;28;20345;-68
2022/07/05 02:50:59;;;;;;;9.35;5.82;;;11.20;95.20;;;;;;5045654;28;20127;-68
2022/07/05 02:53:25;;;;;;;12.38;6.25;;;11.10;95.10;;;;;;5047185;28;20143;-68
2022/07/05 02:55:51;;;;;;;9.32;5.78;;;11.10;95.10;;;;;;5043111;28;20430;-68
2022/07/05 02:58:17;;;;;;;9.30;5.78;;;11.00;94.90;;;;;;5048573;28;20044;-68
2022/07/05 03:00:44;;;;;;;11.93;6.18;;;11.00;94.80;;;;;;5048271;28;20033;-68
2022/07/05 03:03:09;;;;;;;12.13;6.10;;;11.00;95.10;;;;;;5048164;28;20021;-68
2022/07/05 03:05:35;;;;;;;14.32;6.35;;;11.00;95.10;;;;;;5044727;28;20041;-68
2022/07/05 03:08:00;;;;;;;12.23;6.55;;;11.00;95.40;;;;;;5037505;28;20454;-68
2022/07/05 03:10:26;;;;;;;10.23;6.35;;;11.10;95.40;;;;;;5040725;28;20041;-68
2022/07/05 03:12:52;;;;;;;9.80;6.28;;;11.10;95.40;;;;;;5050271;28;20112;-68
2022/07/05 03:15:17;;;;;;;9.10;6.85;;;11.00;95.40;;;;;;5045464;28;20040;-68
2022/07/05 03:17:43;;;;;;;13.30;6.15;;;11.00;95.30;;;;;;5043988;28;20280;-68
2022/07/05 03:20:09;;;;;;;12.35;6.55;;;10.90;95.30;;;;;;5041097;28;20088;-68
2022/07/05 03:22:35;;;;;;;9.40;5.68;;;11.00;95.50;;;;;;5049253;28;20150;-68
2022/07/05 03:25:00;;;;;;;13.32;6.18;;;10.90;95.50;;;;;;5040007;28;20132;-68
2022/07/05 03:27:26;;;;;;;11.27;6.20;;;11.00;95.60;;;;;;5045052;28;20099;-68
2022/07/05 03:29:51;;;;;;;10.57;6.60;;;10.90;95.50;;;;;;5045097;28;20444;-68
2022/07/05 03:32:17;;;;;;;15.75;6.72;;;10.80;95.60;;;;;;5050346;28;20492;-68
2022/07/05 03:34:43;;;;;;;11.60;6.65;;;10.90;95.80;;;;;;5048651;28;20031;-68
2022/07/05 03:37:08;;;;;;;10.65;6.80;;;11.00;95.70;;;;;;5049363;28;20043;-68
2022/07/05 03:39:34;;;;;;;12.48;7.20;;;11.00;96.00;;;;;;5049231;28;20029;-68
2022/07/05 03:41:59;;;;;;;17.60;8.27;;;11.00;96.00;;;;;;5040320;28;20427;-68
2022/07/05 03:44:25;;;;;;;12.73;7.80;;;11.10;96.00;;;;;;5044686;28;20044;-68
2022/07/05 03:46:50;;;;;;;12.50;7.30;;;11.10;96.00;;;;;;5043358;28;20450;-68
2022/07/05 03:49:15;;;;;;;10.73;7.72;;;11.10;96.00;;;;;;5046258;28;20106;-68
2022/07/05 03:51:41;;;;;;;11.18;6.85;;;11.10;96.00;;;;;;5045829;28;20116;-68
2022/07/05 03:54:06;;;;;;;10.38;7.78;;;11.10;95.80;;;;;;5047207;28;20029;-68
2022/07/05 03:56:32;;;;;;;11.68;7.43;;;11.10;95.90;;;;;;5043128;28;20036;-68
2022/07/05 03:58:58;;;;;;;11.00;7.80;;;11.10;95.90;;;;;;5043312;28;20463;-68
2022/07/05 04:01:23;;;;;;;11.00;7.82;;;11.10;95.90;;;;;;5045376;28;20404;-68
2022/07/05 04:03:49;;;;;;;13.40;8.05;;;11.10;95.90;;;;;;5047059;28;20032;-68
2022/07/05 04:06:14;;;;;;;17.75;8.65;;;11.20;95.80;;;;;;5043638;28;20029;-68
2022/07/05 04:08:40;;;;;;;9.90;7.22;;;11.20;95.90;;;;;;5044637;28;20059;-68
2022/07/05 04:11:05;;;;;;;13.65;7.57;;;11.20;95.90;;;;;;5045656;28;20038;-68
2022/07/05 04:13:31;;;;;;;11.80;8.13;;;11.30;95.90;;;;;;5044722;28;20037;-68
2022/07/05 04:15:57;;;;;;;11.68;8.43;;;11.30;96.00;;;;;;5039834;28;20299;-68
2022/07/05 04:18:23;;;;;;;15.35;8.48;;;11.40;95.90;;;;;;5042904;28;20053;-67
2022/07/05 04:20:48;;;;;;;14.25;7.85;;;11.40;95.90;;;;;;5041394;28;20067;-67
2022/07/05 04:23:14;;;;;;;18.42;8.60;;;11.50;95.90;;;;;;5043736;28;20099;-67
2022/07/05 04:25:40;;;;;;;10.52;8.40;;;11.50;95.90;;;;;;5040771;28;20029;-67
2022/07/05 04:28:05;;;;;;;12.65;8.57;;;11.50;95.80;;;;;;5045301;28;20040;-66
2022/07/05 04:30:31;;;;;;;12.23;7.85;;;11.60;95.70;;;;;;5043741;28;20060;-66
2022/07/05 04:32:57;;;;;;;15.45;7.85;;;11.60;95.70;;;;;;5045051;28;20064;-66
2022/07/05 04:35:23;;;;;;;13.65;7.53;;;11.60;95.50;;;;;;5046308;28;20119;-66
2022/07/05 04:37:49;;;;;;;15.10;7.38;;;11.70;95.40;;;;;;5045999;28;20112;-66
2022/07/05 04:40:15;;;;;;;15.18;8.10;;;11.70;95.30;;;;;;5046577;28;20444;-66
2022/07/05 04:42:41;;;;;;;12.48;7.45;;;11.70;95.10;;;;;;5035181;28;20574;-66
2022/07/05 04:45:07;;;;;;;14.45;8.98;;;11.80;95.10;;;;;;5034792;28;20451;-66
2022/07/05 04:47:36;;;;;;;11.75;8.05;;;11.80;94.90;;;;;;5038084;28;20068;-66
2022/07/05 04:50:03;;;;;;;10.95;7.65;;;11.90;95.00;;;;;;5041011;28;20025;-66
2022/07/05 04:52:29;;;;;;;12.07;7.70;;;11.90;94.90;;;;;;5043959;28;20033;-66
2022/07/05 04:54:54;;;;;;;14.32;6.97;;;11.90;94.80;;;;;;5044069;28;20025;-65
2022/07/05 04:57:20;;;;;;;11.20;6.95;;;12.00;94.80;;;;;;5045805;28;20041;-66
2022/07/05 04:59:45;;;;;;;10.13;7.85;;;12.00;94.80;;;;;;5045104;28;20132;-66
2022/07/05 05:02:11;;;;;;;10.82;7.70;;;12.10;94.80;;;;;;5042206;28;20082;-66
2022/07/05 05:04:36;;;;;;;10.73;7.10;;;12.10;94.80;;;;;;5045257;28;20475;-66
2022/07/05 05:07:02;;;;;;;12.82;6.82;;;12.10;94.70;;;;;;5049106;28;20534;-66
2022/07/05 05:09:28;;;;;;;15.35;7.30;;;12.20;94.60;;;;;;5032632;28;20087;-66
2022/07/05 05:11:53;;;;;;;11.73;7.50;;;12.30;94.50;;;;;;5042715;28;20029;-67
2022/07/05 05:14:19;;;;;;;12.52;7.32;;;12.40;94.30;;;;;;5047063;28;20048;-66
2022/07/05 05:16:44;;;;;;;16.10;7.43;;;12.50;94.20;;;;;;5048991;28;20041;-66
2022/07/05 05:19:10;;;;;;;12.77;7.18;;;12.60;94.10;;;;;;5045842;28;20053;-66
2022/07/05 05:21:36;;;;;;;10.90;7.18;;;12.70;94.00;;;;;;5052101;28;20455;-67
2022/07/05 05:24:01;;;;;;;12.23;6.78;;;12.80;93.70;;;;;;5046141;28;20040;-65
2022/07/05 05:26:27;;;;;;;9.38;7.35;;;12.80;93.60;;;;;;5040595;28;20346;-66
2022/07/05 05:28:53;;;;;;;9.68;7.18;;;12.90;93.50;;;;;;5044881;28;20440;-66
2022/07/05 05:31:18;;;;;;;14.43;6.60;;;13.00;93.50;;;;;;5048331;28;20029;-66
2022/07/05 05:33:44;;;;;;;11.63;6.35;;;13.10;93.30;;;;;;5039227;28;20512;-66
2022/07/05 05:36:10;;;;;;;14.27;6.68;;;13.20;93.30;;;;;;5047140;28;20104;-66
2022/07/05 05:38:36;;;;;;;12.43;6.72;;;13.30;92.70;;;;;;5045511;28;20128;-66
2022/07/05 05:41:02;;;;;;;12.75;5.53;;;13.40;92.30;;;;;;5047163;28;20098;-66
2022/07/05 05:43:27;;;;;;;8.07;5.13;;;13.60;92.10;;;;;;5043927;28;20041;-66
2022/07/05 05:45:53;;;;;;;10.80;5.68;;;13.70;90.90;;;;;;5046511;28;20033;-66
2022/07/05 05:48:19;;;;;;;9.23;5.72;;;13.80;91.00;;;;;;5046664;28;20032;-66
2022/07/05 05:50:45;;;;;;;9.55;5.20;;;14.00;90.70;;;;;;5045347;28;20029;-66
2022/07/05 05:53:11;;;;;;;8.55;4.82;;;14.10;90.10;;;;;;5047812;28;20391;-66
2022/07/05 05:55:37;;;;;;;8.55;4.65;;;14.20;90.00;;;;;;5040100;28;20566;-66
2022/07/05 05:58:17;;;;;;;12.07;4.65;;;14.40;89.40;;;;;;5036720;28;20053;-66
2022/07/05 06:00:44;;;;;;;8.00;3.70;;;14.50;88.80;;;;;;5041802;28;20028;-66
2022/07/05 06:03:10;;;;;;;6.00;3.67;;;14.60;88.50;;;;;;5048592;28;20286;-66
2022/07/05 06:05:36;;;;;;;7.18;3.80;;;14.70;87.60;;;;;;5053148;28;20066;-66
2022/07/05 06:08:01;;;;;;;10.38;3.67;;;14.80;86.70;;;;;;5051338;28;20116;-66
2022/07/05 06:10:29;;;;;;;8.85;3.40;;;15.00;85.50;;;;;;5048117;28;20040;-67
2022/07/05 06:12:57;;;;;;;9.10;2.90;;;15.10;84.70;;;;;;5050194;28;20044;-66
2022/07/05 06:15:23;;;;;;;4.03;2.60;;;15.10;83.50;;;;;;5048651;28;20530;-66
2022/07/05 06:17:49;;;;;;;6.63;2.97;;;15.30;83.40;;;;;;5048323;28;20037;-66
2022/07/05 06:20:17;;;;;;;7.40;2.70;;;15.40;83.70;;;;;;5044630;28;20431;-67
2022/07/05 06:22:43;;;;;;;3.80;2.25;;;15.50;82.50;;;;;;5049757;28;20020;-66
2022/07/05 06:25:09;;;;;;;5.72;2.25;;;15.70;81.60;;;;;;5045721;28;20493;-66
2022/07/05 06:27:46;;;;;;;5.80;1.95;;;15.80;80.00;;;;;;5049402;28;20037;-66
2022/07/05 06:30:15;;;;;;;4.63;1.77;;;16.00;79.00;;;;;;5044992;28;20112;-66
2022/07/05 06:32:42;;;;;;;4.30;2.15;;;16.20;79.20;;;;;;5044900;28;20025;-66
2022/07/05 06:35:09;;;;;;;4.75;1.85;;;16.40;78.40;;;;;;5048086;28;20457;-66
2022/07/05 06:37:42;;;;;;;6.18;1.73;;;16.60;77.50;;;;;;5049979;28;20125;-66
2022/07/05 06:40:09;;;;;;;3.72;1.60;;;16.80;77.70;;;;;;5044415;28;20414;-66
2022/07/05 06:42:35;;;;;;;2.45;1.38;;;16.60;75.90;;;;;;5048658;28;20043;-66
2022/07/05 06:45:00;;;;;;;3.08;1.40;;;16.60;76.00;;;;;;5049495;28;20032;-66
2022/07/05 06:47:26;;;;;;;2.50;1.40;;;16.60;75.20;;;;;;5049471;28;20483;-66
2022/07/05 06:49:51;;;;;;;5.85;1.55;;;16.80;76.00;;;;;;5050476;28;20162;-66
2022/07/05 06:52:17;;;;;;;3.00;1.27;;;16.90;74.70;;;;;;5049184;28;20112;-66
2022/07/05 06:54:42;;;;;;;3.88;1.58;;;17.00;74.30;;;;;;5050628;28;20390;-66
2022/07/05 06:57:08;;;;;;;2.65;1.20;;;17.00;74.30;;;;;;5046156;28;20494;-66
2022/07/05 06:59:33;;;;;;;3.10;1.30;;;17.20;73.40;;;;;;5047069;28;20079;-66
2022/07/05 07:01:59;;;;;;;3.15;1.13;;;17.30;73.60;;;;;;5048648;28;20120;-66
2022/07/05 07:04:24;;;;;;;4.30;1.02;;;17.20;72.40;;;;;;5049055;28;20037;-66
2022/07/05 07:06:50;;;;;;;1.27;0.95;;;17.50;72.20;;;;;;5048875;28;20039;-66
2022/07/05 07:09:18;;;;;;;3.15;1.20;;;17.50;71.90;;;;;;5049968;28;20091;-67
2022/07/05 07:11:45;;;;;;;4.72;1.20;;;17.60;71.30;;;;;;5048974;28;20045;-67
2022/07/05 07:14:11;;;;;;;2.25;1.20;;;17.50;70.30;;;;;;5043204;28;20040;-66
2022/07/05 07:16:36;;;;;;;5.32;1.10;;;17.60;70.70;;;;;;5043002;28;20047;-66
2022/07/05 07:19:02;;;;;;;2.30;1.15;;;17.70;70.30;;;;;;5049627;28;20465;-67
2022/07/05 07:21:27;;;;;;;2.78;0.80;;;17.80;69.80;;;;;;5050190;28;20025;-67
2022/07/05 07:23:53;;;;;;;4.05;1.48;;;17.90;68.10;;;;;;5051053;28;20071;-67
2022/07/05 07:26:18;;;;;;;3.47;1.27;;;17.90;68.40;;;;;;5042443;28;20120;-67
2022/07/05 07:28:44;;;;;;;4.05;0.77;;;18.00;68.10;;;;;;5046201;28;20028;-67
2022/07/05 07:31:10;;;;;;;1.88;0.65;;;18.30;68.60;;;;;;5048515;28;20060;-67
2022/07/05 07:33:36;;;;;;;2.22;0.70;;;18.40;66.30;;;;;;5046079;28;20025;-67
2022/07/05 07:36:02;;;;;;;3.10;0.95;;;18.30;64.10;;;;;;5038339;28;20457;-67
2022/07/05 07:38:27;;;;;;;2.55;0.70;;;18.50;65.70;;;;;;5046855;28;20119;-67
2022/07/05 07:40:53;;;;;;;2.58;0.52;;;18.60;63.00;;;;;;5042337;28;20132;-67
2022/07/05 07:43:18;;;;;;;3.40;0.70;;;18.60;63.20;;;;;;5039246;28;20443;-67
2022/07/05 07:45:44;;;;;;;1.73;0.60;;;18.60;59.70;;;;;;5046447;28;20116;-66
2022/07/05 07:48:09;;;;;;;5.90;0.70;;;18.50;61.90;;;;;;5042808;28;20116;-65
2022/07/05 07:50:35;;;;;;;3.47;0.90;;;18.90;62.50;;;;;;5043412;28;20102;-67
2022/07/05 07:53:01;;;;;;;3.90;0.80;;;18.90;61.30;;;;;;5045799;28;20110;-66
2022/07/05 07:55:26;;;;;;;2.03;0.90;;;18.90;60.40;;;;;;5048113;28;20495;-67
2022/07/05 07:57:52;;;;;;;2.25;0.70;;;19.00;60.80;;;;;;5044843;28;20040;-67
2022/07/05 08:00:18;;;;;;;1.98;0.47;;;19.10;60.70;;;;;;5036294;28;20041;-67
2022/07/05 08:02:43;;;;;;;2.47;0.88;;;19.20;57.90;;;;;;5040147;28;20345;-67
2022/07/05 08:05:09;;;;;;;3.28;0.80;;;19.40;60.30;;;;;;5034834;28;20032;-65
2022/07/05 08:07:35;;;;;;;4.82;0.80;;;19.50;60.90;;;;;;5038919;28;20041;-64
2022/07/05 08:10:01;;;;;;;0.70;0.50;;;19.50;59.80;;;;;;5039649;28;20459;-67
2022/07/05 08:12:26;;;;;;;1.85;0.70;;;19.60;57.50;;;;;;5045936;28;20071;-67
2022/07/05 08:14:52;;;;;;;1.38;0.68;;;19.70;56.90;;;;;;5041218;28;20037;-67
2022/07/05 08:17:20;;;;;;;1.35;0.70;;;19.40;56.10;;;;;;5038067;28;21973;-66
2022/07/05 08:22:30;;;;;;;1.90;0.70;;;19.50;57.00;;;;;;5047648;28;20078;-67
2022/07/05 08:24:56;;;;;;;2.85;0.70;;;19.90;57.60;;;;;;5046598;28;20033;-67
2022/07/05 08:27:21;;;;;;;2.22;0.68;;;20.30;54.00;;;;;;5046381;28;20388;-68
2022/07/05 08:29:47;;;;;;;2.00;0.38;;;20.50;52.50;;;;;;5040248;28;20047;-69
2022/07/05 08:32:13;;;;;;;1.25;0.30;;;20.10;50.50;;;;;;5042888;28;20033;-74
2022/07/05 08:34:39;;;;;;;2.03;0.60;;;19.80;50.70;;;;;;5045437;28;20033;-69
2022/07/05 08:37:06;;;;;;;3.53;0.70;;;20.10;51.20;;;;;;5045459;28;20112;-68
2022/07/05 08:39:31;;;;;;;4.63;0.90;;;20.70;50.90;;;;;;5047376;28;20084;-69
2022/07/05 08:41:58;;;;;;;1.15;0.38;;;20.60;50.70;;;;;;5041860;28;20498;-69
2022/07/05 08:44:27;;;;;;;1.67;0.38;;;20.40;51.10;;;;;;5040076;28;20148;-68
2022/07/05 08:46:54;;;;;;;1.83;0.40;;;20.20;52.20;;;;;;5042604;28;20043;-68
2022/07/05 08:49:27;;;;;;;0.43;0.30;;;19.80;51.70;;;;;;5048914;28;20033;-68
2022/07/05 08:51:56;;;;;;;2.63;0.60;;;19.50;53.50;;;;;;5046950;28;20068;-69
2022/07/05 08:54:23;;;;;;;2.20;0.60;;;19.90;53.20;;;;;;5047826;28;20025;-69
2022/07/05 08:56:50;;;;;;;1.95;0.40;;;20.00;51.90;;;;;;5037563;28;20037;-70
2022/07/05 08:59:15;;;;;;;3.53;0.40;;;19.80;53.60;;;;;;5037705;28;20139;-68
2022/07/05 09:01:44;;;;;;;2.20;0.55;;;20.10;53.00;;;;;;5044965;28;20037;-68
2022/07/05 09:04:12;;;;;;;2.30;0.68;;;20.10;52.80;;;;;;5040743;28;20033;-68
2022/07/05 09:06:39;;;;;;;1.23;0.50;;;20.20;52.50;;;;;;5040959;28;20521;-69
2022/07/05 09:09:06;;;;;;;2.20;0.40;;;20.20;51.20;;;;;;5047016;28;20024;-68
2022/07/05 09:11:39;;;;;;;0.75;0.30;;;20.30;51.60;;;;;;5048407;28;20033;-68
2022/07/05 09:14:17;;;;;;;0.95;0.40;;;20.60;51.80;;;;;;5039464;28;20025;-68
2022/07/05 09:16:42;;;;;;;2.35;0.60;;;20.30;50.30;;;;;;5054842;28;20334;-68
2022/07/05 09:19:08;;;;;;;1.58;0.63;;;20.00;50.60;;;;;;5048215;28;20097;-68
2022/07/05 09:21:35;;;;;;;0.65;0.20;;;19.60;51.20;;;;;;5046183;28;20052;-68
2022/07/05 09:24:05;;;;;;;0.93;0.20;;;19.70;50.60;;;;;;5048519;28;20021;-69
2022/07/05 09:26:41;;;;;;;3.42;0.55;;;19.70;50.50;;;;;;5043267;28;20460;-68
2022/07/05 09:29:09;;;;;;;1.60;0.50;;;19.70;50.60;;;;;;5047112;28;20056;-69
2022/07/05 09:31:41;;;;;;;0.88;0.25;;;19.80;50.10;;;;;;5047167;28;20153;-69
2022/07/05 09:34:14;;;;;;;2.30;0.57;;;19.70;51.00;;;;;;5046997;28;20025;-69
2022/07/05 09:36:50;;;;;;;1.13;0.40;;;19.70;51.20;;;;;;5054346;28;20333;-69
2022/07/05 09:39:16;;;;;;;0.38;0.22;;;19.80;51.00;;;;;;5047386;28;20365;-70
2022/07/05 09:41:41;;;;;;;1.55;0.30;;;20.50;48.30;;;;;;5050300;28;20504;-69
2022/07/05 09:44:07;;;;;;;4.28;0.60;;;21.10;49.10;;;;;;5053832;28;20115;-69
2022/07/05 09:46:32;;;;;;;2.97;0.60;;;21.40;48.40;;;;;;5051231;28;20044;-69
2022/07/05 09:48:59;;;;;;;1.63;0.40;;;21.40;48.70;;;;;;5052010;28;20310;-69
2022/07/05 09:51:25;;;;;;;1.13;0.50;;;21.50;47.80;;;;;;5052017;28;20029;-69
2022/07/05 09:53:55;;;;;;;1.30;0.25;;;21.50;48.60;;;;;;5050969;28;20491;-68
2022/07/05 09:56:21;;;;;;;1.80;0.43;;;21.90;47.00;;;;;;5040197;28;20076;-69
2022/07/05 09:58:47;;;;;;;1.58;0.57;;;21.60;49.00;;;;;;5054370;28;20087;-68
2022/07/05 10:01:39;;;;;;;0.90;0.28;;;21.40;49.10;;;;;;5055130;28;20053;-68
2022/07/05 10:04:05;;;;;;;7.05;0.82;;;21.00;47.70;;;;;;5055216;28;20066;-68
2022/07/05 10:06:32;;;;;;;0.50;0.35;;;20.50;47.30;;;;;;5045517;28;20074;-69
2022/07/05 10:08:59;;;;;;;3.90;0.50;;;21.20;48.10;;;;;;5045803;28;20083;-68
2022/07/05 10:11:25;;;;;;;1.63;0.50;;;21.50;45.90;;;;;;5039215;28;20049;-69
2022/07/05 10:13:52;;;;;;;2.45;0.40;;;21.50;46.50;;;;;;5044283;28;20024;-69
2022/07/05 10:16:19;;;;;;;1.40;0.32;;;21.50;47.20;;;;;;5045746;28;20087;-68
2022/07/05 10:18:51;;;;;;;2.10;0.35;;;21.50;47.70;;;;;;5048069;28;20620;-69
2022/07/05 10:21:18;;;;;;;2.75;0.88;;;21.80;46.30;;;;;;5047945;28;20035;-69
2022/07/05 10:23:55;;;;;;;1.38;0.40;;;22.00;46.20;;;;;;5048471;28;20068;-69
2022/07/05 10:26:23;;;;;;;4.80;0.68;;;21.90;45.80;;;;;;5049956;28;20025;-69
2022/07/05 10:28:52;;;;;;;3.40;0.63;;;22.20;46.90;;;;;;5045333;28;20049;-67
2022/07/05 10:31:18;;;;;;;4.03;0.45;;;22.50;44.40;;;;;;5048479;28;20340;-67
2022/07/05 10:33:44;;;;;;;1.02;0.30;;;22.50;43.60;;;;;;5049563;28;20112;-67
2022/07/05 10:36:11;;;;;;;0.70;0.30;;;22.10;44.20;;;;;;5050796;28;20487;-67
2022/07/05 10:38:42;;;;;;;2.67;0.40;;;22.20;45.50;;;;;;5042160;28;20071;-67
2022/07/05 10:41:12;;;;;;;2.20;0.40;;;22.30;46.10;;;;;;5044693;28;20041;-67
2022/07/05 10:43:37;;;;;;;1.80;0.60;;;22.40;44.80;;;;;;5051750;28;20093;-67
2022/07/05 10:46:07;;;;;;;0.75;0.40;;;21.60;45.60;;;;;;5053225;28;20029;-67
2022/07/05 10:48:33;;;;;;;2.40;0.73;;;21.50;45.90;;;;;;5042771;28;20024;-67
2022/07/05 10:51:14;;;;;;;2.45;0.38;;;21.20;47.20;;;;;;5047745;28;20029;-67
2022/07/05 10:53:40;;;;;;;3.63;0.50;;;21.00;47.40;;;;;;5048005;28;20045;-67
2022/07/05 10:56:05;;;;;;;0.32;0.20;;;20.80;48.40;;;;;;5048022;28;20037;-66
2022/07/05 10:58:38;;;;;;;2.88;0.43;;;21.00;48.80;;;;;;5048185;28;20142;-67
2022/07/05 11:01:12;;;;;;;1.73;0.50;;;21.50;48.40;;;;;;5048344;28;20036;-67
2022/07/05 11:04:01;;;;;;;1.80;0.38;;;22.30;46.70;;;;;;5049588;28;20037;-67
2022/07/05 11:06:42;;;;;;;1.25;0.50;;;22.50;45.00;;;;;;5048494;28;20064;-67
2022/07/05 11:09:10;;;;;;;1.88;0.57;;;23.00;45.60;;;;;;5044873;28;20037;-67
2022/07/05 11:11:41;;;;;;;1.45;0.30;;;22.90;44.50;;;;;;5051625;28;20028;-67
2022/07/05 11:14:22;;;;;;;0.52;0.25;;;22.90;45.70;;;;;;5043100;28;20464;-67
2022/07/05 11:17:07;;;;;;;3.00;0.47;;;22.80;43.90;;;;;;5042006;28;20058;-67
2022/07/05 11:19:34;;;;;;;1.83;0.65;;;22.50;45.40;;;;;;5038831;28;20183;-67
2022/07/05 11:22:09;;;;;;;1.40;0.50;;;23.00;43.20;;;;;;5057379;28;20522;-67
2022/07/05 11:24:36;;;;;;;2.13;0.50;;;23.50;44.90;;;;;;5045376;28;20126;-67
2022/07/05 11:27:08;;;;;;;2.10;0.40;;;23.70;43.00;;;;;;5047881;28;20042;-68
2022/07/05 11:29:51;;;;;;;0.90;0.40;;;24.10;42.60;;;;;;5044630;28;20044;-69
2022/07/05 11:32:36;;;;;;;0.80;0.35;;;24.60;40.30;;;;;;5047147;28;20124;-70
2022/07/05 11:35:16;;;;;;;1.65;0.45;;;24.90;42.80;;;;;;5038036;28;20119;-69
2022/07/05 11:38:09;;;;;;;2.05;0.60;;;24.80;38.60;;;;;;5045600;28;20550;-68
2022/07/05 11:40:38;;;;;;;1.45;0.38;;;24.00;40.00;;;;;;5043479;28;20024;-68
2022/07/05 11:43:06;;;;;;;1.13;0.50;;;24.50;39.70;;;;;;5048480;28;20427;-68
2022/07/05 11:45:32;;;;;;;4.30;0.70;;;24.00;40.40;;;;;;5048271;28;20068;-68
2022/07/05 11:47:58;;;;;;;2.35;0.40;;;23.70;41.10;;;;;;5048029;28;20394;-68
2022/07/05 11:50:29;;;;;;;0.85;0.40;;;23.20;41.60;;;;;;5047181;28;20056;-68
2022/07/05 11:52:54;;;;;;;2.13;0.40;;;22.50;42.60;;;;;;5048205;28;20055;-68
2022/07/05 11:55:20;;;;;;;2.40;0.60;;;22.30;43.20;;;;;;5051719;28;20452;-67
2022/07/05 11:57:50;;;;;;;2.80;0.73;;;21.80;43.70;;;;;;5049408;28;20392;-68
2022/07/05 12:00:36;;;;;;;2.38;0.40;;;21.70;45.50;;;;;;5039172;28;20029;-68
2022/07/05 12:03:10;;;;;;;1.20;0.38;;;22.00;44.80;;;;;;5051172;28;20083;-68
2022/07/05 12:05:36;;;;;;;1.20;0.40;;;21.90;44.60;;;;;;5047647;28;20115;-68
2022/07/05 12:08:01;;;;;;;1.63;0.52;;;22.10;44.70;;;;;;5047907;28;20119;-68
2022/07/05 12:13:11;;;;;;;1.95;0.52;;;22.30;44.30;;;;;;5049585;28;20463;-68
2022/07/05 12:15:37;;;;;;;3.10;0.57;;;22.00;44.80;;;;;;5047536;28;20036;-69
2022/07/05 12:18:05;;;;;;;0.77;0.40;;;21.80;44.60;;;;;;5049316;28;20120;-69
2022/07/05 12:20:32;;;;;;;2.35;0.60;;;21.70;45.30;;;;;;5042903;28;20420;-68
2022/07/05 12:22:59;;;;;;;2.95;0.77;;;21.70;45.60;;;;;;5047644;28;20029;-68
2022/07/05 12:25:27;;;;;;;2.55;0.60;;;21.60;45.80;;;;;;5043528;28;20515;-68
2022/07/05 12:27:54;;;;;;;1.58;0.50;;;21.90;45.60;;;;;;5048211;28;20029;-68
2022/07/05 12:30:20;;;;;;;2.08;0.73;;;22.00;45.90;;;;;;5042751;28;20033;-68
2022/07/05 12:33:06;;;;;;;2.45;0.60;;;22.30;45.80;;;;;;5040581;28;20095;-68
2022/07/05 12:35:45;;;;;;;1.73;0.50;;;22.20;46.10;;;;;;5045767;28;20031;-68
2022/07/05 12:38:15;;;;;;;3.67;0.73;;;23.30;43.50;;;;;;5042739;28;20126;-68
2022/07/05 12:40:42;;;;;;;2.28;0.40;;;24.60;43.10;;;;;;5040370;28;20036;-69
2022/07/05 12:43:09;;;;;;;2.35;0.45;;;24.30;41.10;;;;;;5042455;28;20383;-68
2022/07/05 12:45:36;;;;;;;1.90;0.68;;;24.30;41.20;;;;;;5046793;28;20151;-69
2022/07/05 12:48:04;;;;;;;2.28;0.70;;;24.40;42.10;;;;;;5041549;28;20173;-68
2022/07/05 12:50:48;;;;;;;1.25;0.45;;;23.70;42.30;;;;;;5041905;28;20021;-69
2022/07/05 12:58:52;;;;;;;1.20;0.55;;;23.60;43.10;;;;;;5041187;28;20052;-68